East Durham, North Carolina
Current Conditions -  °F | °C
As of 7:51 AM on Tuesday 21 Oct 2014 (Local Time) from KRDU Reporting Station
Few Clouds Few Clouds  
Wind Chill: 52°   Ceiling: Unl
Heat Index: 52°   Visibility: 10mi
Dew Point: 48°   Wind: 3mph
Humidity: 86%   Direction: 220°SW
Pressure: 29.93"   Gusts: NA
Location:  35.9655°N, 78.8009°W
Report Text: KRDU 211151Z 22003KT 10SM FEW100 11/09 A2993 RMK AO2 SLP135 T01110089 10144 20106 52004
Loading
Personal Weather Stations






























Interactive Weather Map
Tropical Storm Tracking
New forecast layout! Learn more

10-Day Weather Forecast

Advertisements
Track Severe Weather on mobile